Terminal Aerodrome Forecast
Issued by NWS Jackson, KY

Home | Current Version | Previous Version | Text Only | Print | Product List | Glossary On
Versions: 1 2 3 4 5 6 7 8 9 10 11 12 13 14 15 16 17 18 19 20 21 22
000
FTUS43 KJKL 301316 AAA
TAFLOZ
TAF AMD
KLOZ 301316Z 3013/0112 00000KT 1/4SM FG OVC002
     FM301400 29002KT P6SM BKN008
     FM301500 30004KT P6SM BKN020
     FM301600 24005KT P6SM BKN045=

USA.gov is the U.S. government's official web portal to all federal, state and local government web resources and services.